createdAt,value
2022-10-02T00:00:38.469Z,20.48
2022-10-02T00:03:04.815Z,20.47
2022-10-02T00:05:31.156Z,20.42
2022-10-02T00:07:57.478Z,20.48
2022-10-02T00:10:23.823Z,20.45
2022-10-02T00:12:50.165Z,20.40
2022-10-02T00:15:16.492Z,20.34
2022-10-02T00:17:42.814Z,20.33
2022-10-02T00:20:09.138Z,20.19
2022-10-02T00:22:35.488Z,20.14
2022-10-02T00:25:01.820Z,20.10
2022-10-02T00:27:28.150Z,20.05
2022-10-02T00:29:54.464Z,19.98
2022-10-02T00:32:20.791Z,20.06
2022-10-02T00:34:47.133Z,20.03
2022-10-02T00:37:13.484Z,20.07
2022-10-02T00:39:39.817Z,20.17
2022-10-02T00:42:06.179Z,20.12
2022-10-02T00:44:32.493Z,20.15
2022-10-02T00:46:58.817Z,20.09
2022-10-02T00:49:25.180Z,20.10
2022-10-02T00:51:51.507Z,20.10
2022-10-02T00:54:17.849Z,20.10
2022-10-02T00:56:44.172Z,20.17
2022-10-02T00:59:10.513Z,20.06
2022-10-02T01:01:36.874Z,20.10
2022-10-02T01:04:03.211Z,20.20
2022-10-02T01:06:29.539Z,20.14
2022-10-02T01:08:55.908Z,20.14
2022-10-02T01:11:22.226Z,20.15
2022-10-02T01:13:48.578Z,20.19
2022-10-02T01:16:14.987Z,20.03
2022-10-02T01:18:41.252Z,19.92
2022-10-02T01:21:07.577Z,19.90
2022-10-02T01:23:33.937Z,19.82
2022-10-02T01:26:00.262Z,19.71
2022-10-02T01:28:26.662Z,19.64
2022-10-02T01:30:52.931Z,19.69
2022-10-02T01:33:19.243Z,19.72
2022-10-02T01:35:45.592Z,19.66
2022-10-02T01:38:11.939Z,19.48
2022-10-02T01:40:38.264Z,19.37
2022-10-02T01:43:04.602Z,19.14
2022-10-02T01:45:31.055Z,19.04
2022-10-02T01:47:57.301Z,18.95
2022-10-02T01:50:23.642Z,18.97
2022-10-02T01:52:49.983Z,18.94
2022-10-02T01:55:16.322Z,18.92
2022-10-02T01:57:42.677Z,18.83
2022-10-02T02:00:09.002Z,18.82
2022-10-02T02:02:35.370Z,18.84
2022-10-02T02:05:01.690Z,18.83
2022-10-02T02:07:28.027Z,18.90
2022-10-02T02:09:54.352Z,18.89
2022-10-02T02:12:20.686Z,18.84
2022-10-02T02:14:47.005Z,18.73
2022-10-02T02:17:13.326Z,18.69
2022-10-02T02:19:39.671Z,18.73
2022-10-02T02:22:06.001Z,18.69
2022-10-02T02:24:32.324Z,18.62
2022-10-02T02:26:58.643Z,18.61
2022-10-02T02:29:24.985Z,18.68
2022-10-02T02:31:51.386Z,18.60
2022-10-02T02:34:17.646Z,18.60
2022-10-02T02:36:43.961Z,18.67
2022-10-02T02:39:10.303Z,18.77
2022-10-02T02:41:36.622Z,18.90
2022-10-02T02:44:02.957Z,18.82
2022-10-02T02:46:29.319Z,18.94
2022-10-02T02:48:55.641Z,18.94
2022-10-02T02:51:21.957Z,18.98
2022-10-02T02:53:48.284Z,18.98
2022-10-02T02:56:14.656Z,19.09
2022-10-02T02:58:40.971Z,19.06
2022-10-02T03:01:07.398Z,19.12
2022-10-02T03:03:33.868Z,19.15
2022-10-02T03:06:00.183Z,19.23
2022-10-02T03:08:26.526Z,19.43
2022-10-02T03:10:52.864Z,19.37
2022-10-02T03:13:19.206Z,19.46
2022-10-02T03:15:45.573Z,19.51
2022-10-02T03:18:11.899Z,19.46
2022-10-02T03:20:38.245Z,19.60
2022-10-02T03:23:04.564Z,19.57
2022-10-02T03:25:30.919Z,19.52
2022-10-02T03:27:57.294Z,19.54
2022-10-02T03:30:23.571Z,19.51
2022-10-02T03:32:49.935Z,19.49
2022-10-02T03:35:16.272Z,19.41
2022-10-02T03:37:42.616Z,19.22
2022-10-02T03:40:08.992Z,19.23
2022-10-02T03:42:35.337Z,19.22
2022-10-02T03:45:01.657Z,19.27
2022-10-02T03:47:28.004Z,19.27
2022-10-02T03:49:54.323Z,19.30
2022-10-02T03:52:20.668Z,19.19
2022-10-02T03:54:47.024Z,19.29
2022-10-02T03:57:13.364Z,19.26
2022-10-02T03:59:39.679Z,19.30
2022-10-02T04:02:06.122Z,19.40
2022-10-02T04:04:32.384Z,19.47
2022-10-02T04:06:58.707Z,19.55
2022-10-02T04:09:25.066Z,19.44
2022-10-02T04:11:51.405Z,19.44
2022-10-02T04:14:17.716Z,19.30
2022-10-02T04:16:44.074Z,19.31
2022-10-02T04:19:10.411Z,19.37
2022-10-02T04:21:36.751Z,19.31
2022-10-02T04:24:03.071Z,19.36
2022-10-02T04:26:29.413Z,19.45
2022-10-02T04:28:55.750Z,19.41
2022-10-02T04:31:22.120Z,19.46
2022-10-02T04:33:48.410Z,19.51
2022-10-02T04:36:14.752Z,19.52
2022-10-02T04:38:41.092Z,19.54
2022-10-02T04:41:07.432Z,19.48
2022-10-02T04:43:33.769Z,19.68
2022-10-02T04:46:00.234Z,19.94
2022-10-02T04:48:26.430Z,20.17
2022-10-02T04:50:52.759Z,20.27
2022-10-02T04:53:19.103Z,20.36
2022-10-02T04:55:45.446Z,20.37
2022-10-02T04:58:11.782Z,20.30
2022-10-02T05:00:38.162Z,20.49
2022-10-02T05:03:04.462Z,20.65
2022-10-02T05:05:30.798Z,20.57
2022-10-02T05:07:57.135Z,20.79
2022-10-02T05:10:23.518Z,21.05
2022-10-02T05:12:49.854Z,21.36
2022-10-02T05:15:16.172Z,21.65
2022-10-02T05:17:42.518Z,21.84
2022-10-02T05:20:08.859Z,22.28
2022-10-02T05:22:35.225Z,22.35
2022-10-02T05:25:01.572Z,21.77
2022-10-02T05:27:27.919Z,21.51
2022-10-02T05:29:54.262Z,21.76
2022-10-02T05:32:20.577Z,21.68
2022-10-02T05:34:46.951Z,21.40
2022-10-02T05:37:13.286Z,21.55
2022-10-02T05:39:39.625Z,21.32
2022-10-02T05:42:05.987Z,21.03
2022-10-02T05:44:32.300Z,21.01
2022-10-02T05:46:58.662Z,21.01
2022-10-02T05:49:24.941Z,20.79
2022-10-02T05:51:51.280Z,20.73
2022-10-02T05:54:17.621Z,20.85
2022-10-02T05:56:43.937Z,21.35
2022-10-02T05:59:10.312Z,21.27
2022-10-02T06:01:36.649Z,21.02
2022-10-02T06:04:02.989Z,20.84
2022-10-02T06:06:29.354Z,20.82
2022-10-02T06:08:55.674Z,20.97
2022-10-02T06:11:22.012Z,20.77
2022-10-02T06:13:48.381Z,20.85
2022-10-02T06:16:14.748Z,20.84
2022-10-02T06:18:41.019Z,21.02
2022-10-02T06:21:07.339Z,20.81
2022-10-02T06:23:33.699Z,21.13
2022-10-02T06:26:00.044Z,21.19
2022-10-02T06:28:26.435Z,21.55
2022-10-02T06:30:53.078Z,21.36
2022-10-02T06:33:19.437Z,21.18
2022-10-02T06:35:45.776Z,21.29
2022-10-02T06:38:12.117Z,21.61
2022-10-02T06:40:38.482Z,22.34
2022-10-02T06:43:04.835Z,21.71
2022-10-02T06:45:31.198Z,21.25
2022-10-02T06:47:57.503Z,21.24
2022-10-02T06:50:23.866Z,21.46
2022-10-02T06:52:50.165Z,21.28
2022-10-02T06:55:16.487Z,21.04
2022-10-02T06:57:42.835Z,21.28
2022-10-02T07:00:09.172Z,21.13
2022-10-02T07:02:35.494Z,21.44
2022-10-02T07:05:01.827Z,21.07
2022-10-02T07:07:28.148Z,21.57
2022-10-02T07:09:54.494Z,22.21
2022-10-02T07:12:20.832Z,22.39
2022-10-02T07:14:47.152Z,22.02
2022-10-02T07:17:13.541Z,22.52
2022-10-02T07:19:39.881Z,22.77
2022-10-02T07:22:25.829Z,23.53
2022-10-02T07:24:32.577Z,23.72
2022-10-02T07:26:58.898Z,23.85
2022-10-02T07:29:25.296Z,23.95
2022-10-02T07:31:51.746Z,23.87
2022-10-02T07:34:18.005Z,23.99
2022-10-02T07:36:44.378Z,23.97
2022-10-02T07:39:10.713Z,23.98
2022-10-02T07:41:37.018Z,24.02
2022-10-02T07:44:03.373Z,23.85
2022-10-02T07:46:29.685Z,23.58
2022-10-02T07:48:56.034Z,23.91
2022-10-02T07:51:22.388Z,24.02
2022-10-02T07:53:48.733Z,24.43
2022-10-02T07:56:15.050Z,24.64
2022-10-02T07:58:41.379Z,24.48
2022-10-02T08:01:07.695Z,23.97
2022-10-02T08:03:34.082Z,23.85
2022-10-02T08:06:00.370Z,24.00
2022-10-02T08:08:26.691Z,24.15
2022-10-02T08:10:53.031Z,24.27
2022-10-02T08:13:19.390Z,24.28
2022-10-02T08:15:45.724Z,24.38
2022-10-02T08:18:33.240Z,24.57
2022-10-02T08:20:38.384Z,24.10
2022-10-02T08:23:04.707Z,24.11
2022-10-02T08:25:31.051Z,24.76
2022-10-02T08:27:57.394Z,24.43
2022-10-02T08:30:23.726Z,24.45
2022-10-02T08:32:50.070Z,24.25
2022-10-02T08:35:16.411Z,24.38
2022-10-02T08:37:42.763Z,25.11
2022-10-02T08:40:09.100Z,24.07
2022-10-02T08:42:35.418Z,23.73
2022-10-02T08:45:01.793Z,23.29
2022-10-02T08:47:28.120Z,22.86
2022-10-02T08:49:54.439Z,23.03
2022-10-02T08:52:20.763Z,24.00
2022-10-02T08:54:47.080Z,24.59
2022-10-02T08:57:13.426Z,24.49
2022-10-02T08:59:39.751Z,24.86
2022-10-02T09:02:06.139Z,24.71
2022-10-02T09:04:32.420Z,24.89
2022-10-02T09:06:58.760Z,25.06
2022-10-02T09:09:25.094Z,24.96
2022-10-02T09:11:51.441Z,25.27
2022-10-02T09:14:17.751Z,25.67
2022-10-02T09:16:44.198Z,26.00
2022-10-02T09:19:10.536Z,25.63
2022-10-02T09:21:36.877Z,25.98
2022-10-02T09:24:03.189Z,25.72
2022-10-02T09:26:29.541Z,25.85
2022-10-02T09:28:55.874Z,25.37
2022-10-02T09:31:22.254Z,25.58
2022-10-02T09:33:48.552Z,26.26
2022-10-02T09:36:14.896Z,26.84
2022-10-02T09:38:41.238Z,26.52
2022-10-02T09:41:07.672Z,26.11
2022-10-02T09:43:34.015Z,25.96
2022-10-02T09:46:00.350Z,25.94
2022-10-02T09:48:26.679Z,25.77
2022-10-02T09:50:53.004Z,26.47
2022-10-02T09:53:19.341Z,26.80
2022-10-02T09:55:45.687Z,25.89
2022-10-02T09:58:12.003Z,26.29
2022-10-02T10:00:38.339Z,26.84
2022-10-02T10:03:04.718Z,26.86
2022-10-02T10:05:31.058Z,27.73
2022-10-02T10:07:57.396Z,27.94
2022-10-02T10:10:23.731Z,27.14
2022-10-02T10:12:50.046Z,27.29
2022-10-02T10:15:16.396Z,27.30
2022-10-02T10:17:42.715Z,27.02
2022-10-02T10:20:09.072Z,27.31
2022-10-02T10:22:35.420Z,27.74
2022-10-02T10:25:01.774Z,27.38
2022-10-02T10:27:28.112Z,27.72
2022-10-02T10:29:54.455Z,27.71
2022-10-02T10:32:20.790Z,27.82
2022-10-02T10:34:47.115Z,27.83
2022-10-02T10:37:13.478Z,28.19
2022-10-02T10:39:39.803Z,28.58
2022-10-02T10:42:06.153Z,28.69
2022-10-02T10:44:32.494Z,28.27
2022-10-02T10:46:58.860Z,28.50
2022-10-02T10:49:25.179Z,28.42
2022-10-02T10:51:51.518Z,27.97
2022-10-02T10:54:17.841Z,27.53
2022-10-02T10:56:44.204Z,27.68
2022-10-02T10:59:10.526Z,27.38
2022-10-02T11:01:37.206Z,26.87
2022-10-02T11:04:03.227Z,27.16
2022-10-02T11:06:29.544Z,27.32
2022-10-02T11:08:55.899Z,27.87
2022-10-02T11:11:22.235Z,27.11
2022-10-02T11:13:48.595Z,27.04
2022-10-02T11:16:14.991Z,26.87
2022-10-02T11:18:41.254Z,26.71
2022-10-02T11:21:07.607Z,26.93
2022-10-02T11:23:33.950Z,26.62
2022-10-02T11:26:00.286Z,26.97
2022-10-02T11:28:26.634Z,26.61
2022-10-02T11:30:52.953Z,26.38
2022-10-02T11:33:19.276Z,26.44
2022-10-02T11:35:45.592Z,26.73
2022-10-02T11:38:11.937Z,26.41
2022-10-02T11:40:38.317Z,26.46
2022-10-02T11:43:04.636Z,26.66
2022-10-02T11:45:31.019Z,26.70
2022-10-02T11:47:57.311Z,26.53
2022-10-02T11:50:23.629Z,26.09
2022-10-02T11:52:49.972Z,26.37
2022-10-02T11:55:16.327Z,26.52
2022-10-02T11:57:42.666Z,26.83
2022-10-02T12:00:09.089Z,26.66
2022-10-02T12:02:35.387Z,26.34
2022-10-02T12:05:01.711Z,26.44
2022-10-02T12:07:28.053Z,26.53
2022-10-02T12:09:54.388Z,26.49
2022-10-02T12:12:23.509Z,26.46
2022-10-02T12:14:47.054Z,26.33
2022-10-02T12:17:13.444Z,26.41
2022-10-02T12:19:39.762Z,25.87
2022-10-02T12:22:06.087Z,25.74
2022-10-02T12:24:32.431Z,26.02
2022-10-02T12:26:58.804Z,26.76
2022-10-02T12:29:25.146Z,26.64
2022-10-02T12:31:51.661Z,26.51
2022-10-02T12:34:17.821Z,25.89
2022-10-02T12:36:44.178Z,25.78
2022-10-02T12:39:10.498Z,26.07
2022-10-02T12:41:37.010Z,26.20
2022-10-02T12:44:03.203Z,26.07
2022-10-02T12:46:29.529Z,26.24
2022-10-02T12:48:55.865Z,25.85
2022-10-02T12:51:22.227Z,25.66
2022-10-02T12:53:48.566Z,25.73
2022-10-02T12:56:14.908Z,25.88
2022-10-02T12:58:41.244Z,25.35
2022-10-02T13:01:07.637Z,25.13
2022-10-02T13:03:33.930Z,24.80
2022-10-02T13:06:00.352Z,24.58
2022-10-02T13:08:26.666Z,24.49
2022-10-02T13:10:52.994Z,24.25
2022-10-02T13:13:19.330Z,24.04
2022-10-02T13:15:45.688Z,24.15
2022-10-02T13:18:12.010Z,24.32
2022-10-02T13:20:38.335Z,24.18
2022-10-02T13:23:04.694Z,24.17
2022-10-02T13:25:31.015Z,24.23
2022-10-02T13:27:57.427Z,24.06
2022-10-02T13:30:23.674Z,23.94
2022-10-02T13:32:50.039Z,23.84
2022-10-02T13:35:16.373Z,23.58
2022-10-02T13:37:42.688Z,23.70
2022-10-02T13:40:09.050Z,23.78
2022-10-02T13:42:35.367Z,23.87
2022-10-02T13:45:01.717Z,23.83
2022-10-02T13:47:28.031Z,23.54
2022-10-02T13:49:54.381Z,23.59
2022-10-02T13:52:20.700Z,23.65
2022-10-02T13:54:47.039Z,23.45
2022-10-02T13:57:13.383Z,23.52
2022-10-02T13:59:39.792Z,23.42
2022-10-02T14:02:06.053Z,23.41
2022-10-02T14:04:32.375Z,23.49
2022-10-02T14:06:58.692Z,23.63
2022-10-02T14:09:25.042Z,23.85
2022-10-02T14:11:51.363Z,23.89
2022-10-02T14:14:17.711Z,23.87
2022-10-02T14:16:44.113Z,23.73
2022-10-02T14:19:10.412Z,23.69
2022-10-02T14:21:37.021Z,23.67
2022-10-02T14:24:03.114Z,23.60
2022-10-02T14:26:29.430Z,23.61
2022-10-02T14:28:55.787Z,23.66
2022-10-02T14:31:22.166Z,23.66
2022-10-02T14:33:48.513Z,23.77
2022-10-02T14:36:14.830Z,23.83
2022-10-02T14:38:41.158Z,23.69
2022-10-02T14:41:07.497Z,23.49
2022-10-02T14:43:33.841Z,23.51
2022-10-02T14:46:00.252Z,23.46
2022-10-02T14:48:26.504Z,23.39
2022-10-02T14:50:52.826Z,23.28
2022-10-02T14:53:19.241Z,23.27
2022-10-02T14:55:45.512Z,23.26
2022-10-02T14:58:11.838Z,23.15
2022-10-02T15:00:38.200Z,23.14
2022-10-02T15:03:04.593Z,23.04
2022-10-02T15:05:30.892Z,22.98
2022-10-02T15:07:57.235Z,22.88
2022-10-02T15:10:23.585Z,22.82
2022-10-02T15:12:49.913Z,22.80
2022-10-02T15:15:16.238Z,22.76
2022-10-02T15:17:42.606Z,22.67
2022-10-02T15:20:09.045Z,22.67
2022-10-02T15:22:35.343Z,22.77
2022-10-02T15:25:01.713Z,22.74
2022-10-02T15:27:28.057Z,22.70
2022-10-02T15:29:54.395Z,22.72
2022-10-02T15:32:20.723Z,22.60
2022-10-02T15:34:47.081Z,22.52
2022-10-02T15:37:13.462Z,22.46
2022-10-02T15:39:39.813Z,22.45
2022-10-02T15:42:06.137Z,22.47
2022-10-02T15:44:32.508Z,22.44
2022-10-02T15:46:59.002Z,22.42
2022-10-02T15:49:25.319Z,22.47
2022-10-02T15:51:51.657Z,22.40
2022-10-02T15:54:17.976Z,22.27
2022-10-02T15:56:44.317Z,22.27
2022-10-02T15:59:10.645Z,22.20
2022-10-02T16:01:41.480Z,22.17
2022-10-02T16:04:03.301Z,22.08
2022-10-02T16:06:29.646Z,22.09
2022-10-02T16:08:55.986Z,22.03
2022-10-02T16:11:22.334Z,21.94
2022-10-02T16:13:48.651Z,21.99
2022-10-02T16:16:15.032Z,22.02
2022-10-02T16:18:41.336Z,21.81
2022-10-02T16:21:07.673Z,21.66
2022-10-02T16:23:33.989Z,21.71
2022-10-02T16:26:00.340Z,21.64
2022-10-02T16:28:26.709Z,21.63
2022-10-02T16:30:53.067Z,21.63
2022-10-02T16:33:19.417Z,21.54
2022-10-02T16:35:45.753Z,21.47
2022-10-02T16:38:12.080Z,21.35
2022-10-02T16:40:38.405Z,21.46
2022-10-02T16:43:04.757Z,21.47
2022-10-02T16:45:31.177Z,21.20
2022-10-02T16:47:57.477Z,21.08
2022-10-02T16:50:23.797Z,21.06
2022-10-02T16:52:50.115Z,21.10
2022-10-02T16:55:16.440Z,21.21
2022-10-02T16:57:42.756Z,21.19
2022-10-02T17:00:09.100Z,21.16
2022-10-02T17:02:35.684Z,21.13
2022-10-02T17:05:02.030Z,21.09
2022-10-02T17:07:28.335Z,21.04
2022-10-02T17:09:54.683Z,20.95
2022-10-02T17:12:21.022Z,20.91
2022-10-02T17:14:47.343Z,20.79
2022-10-02T17:17:13.687Z,20.82
2022-10-02T17:19:40.061Z,20.80
2022-10-02T17:22:06.377Z,20.74
2022-10-02T17:24:32.726Z,20.64
2022-10-02T17:27:01.495Z,20.53
2022-10-02T17:29:27.829Z,20.51
2022-10-02T17:31:54.230Z,20.55
2022-10-02T17:34:20.502Z,20.58
2022-10-02T17:36:46.847Z,20.57
2022-10-02T17:39:13.163Z,20.54
2022-10-02T17:41:39.489Z,20.52
2022-10-02T17:44:05.870Z,20.55
2022-10-02T17:46:32.189Z,20.56
2022-10-02T17:48:58.525Z,20.53
2022-10-02T17:51:51.191Z,20.50
2022-10-02T17:53:51.184Z,20.49
2022-10-02T17:56:17.507Z,20.51
2022-10-02T17:58:43.827Z,20.60
2022-10-02T18:01:10.219Z,20.47
2022-10-02T18:03:36.537Z,20.38
2022-10-02T18:06:02.867Z,20.36
2022-10-02T18:08:30.727Z,20.37
2022-10-02T18:10:55.527Z,20.34
2022-10-02T18:13:21.864Z,20.39
2022-10-02T18:15:48.184Z,20.41
2022-10-02T18:18:14.527Z,20.27
2022-10-02T18:20:40.871Z,20.28
2022-10-02T18:23:07.208Z,20.16
2022-10-02T18:25:33.548Z,20.08
2022-10-02T18:27:59.975Z,19.91
2022-10-02T18:30:26.232Z,19.74
2022-10-02T18:32:52.544Z,19.80
2022-10-02T18:35:18.910Z,19.75
2022-10-02T18:37:45.223Z,19.70
2022-10-02T18:40:11.572Z,19.62
2022-10-02T18:42:37.929Z,19.48
2022-10-02T18:45:04.285Z,19.45
2022-10-02T18:47:30.623Z,19.33
2022-10-02T18:49:56.984Z,19.12
2022-10-02T18:52:23.296Z,19.04
2022-10-02T18:54:49.641Z,19.07
2022-10-02T18:57:15.980Z,18.99
2022-10-02T18:59:42.301Z,18.77
2022-10-02T19:02:08.657Z,18.73
2022-10-02T19:04:34.950Z,18.73
2022-10-02T19:07:01.281Z,18.48
2022-10-02T19:09:27.657Z,18.50
2022-10-02T19:11:53.971Z,18.41
2022-10-02T19:14:20.321Z,18.33
2022-10-02T19:16:46.718Z,18.26
2022-10-02T19:19:13.028Z,18.24
2022-10-02T19:21:39.369Z,18.25
2022-10-02T19:24:05.712Z,18.22
2022-10-02T19:26:32.058Z,18.10
2022-10-02T19:28:58.366Z,18.09
2022-10-02T19:31:24.749Z,17.89
2022-10-02T19:33:51.051Z,17.89
2022-10-02T19:36:17.364Z,17.86
2022-10-02T19:38:43.701Z,17.83
2022-10-02T19:41:10.024Z,17.93
2022-10-02T19:43:36.406Z,17.91
2022-10-02T19:46:02.797Z,17.79
2022-10-02T19:48:29.090Z,17.92
2022-10-02T19:50:55.407Z,17.88
2022-10-02T19:53:21.753Z,17.94
2022-10-02T19:55:48.067Z,17.94
2022-10-02T19:58:14.392Z,17.73
2022-10-02T20:00:40.728Z,17.64
2022-10-02T20:03:07.074Z,17.45
2022-10-02T20:05:33.411Z,17.36
2022-10-02T20:08:03.032Z,17.42
2022-10-02T20:10:26.051Z,17.54
2022-10-02T20:12:52.372Z,17.58
2022-10-02T20:15:18.690Z,17.54
2022-10-02T20:17:45.017Z,17.53
2022-10-02T20:20:11.360Z,17.46
2022-10-02T20:22:37.696Z,17.48
2022-10-02T20:25:04.024Z,17.52
2022-10-02T20:27:30.367Z,17.39
2022-10-02T20:29:56.678Z,17.31
2022-10-02T20:32:23.035Z,17.27
2022-10-02T20:34:49.376Z,17.18
2022-10-02T20:37:15.713Z,17.11
2022-10-02T20:39:42.049Z,17.12
2022-10-02T20:42:08.381Z,17.23
2022-10-02T20:44:34.721Z,17.18
2022-10-02T20:47:01.092Z,17.16
2022-10-02T20:49:27.404Z,17.01
2022-10-02T20:51:54.052Z,17.02
2022-10-02T20:54:20.069Z,17.11
2022-10-02T20:56:46.428Z,17.14
2022-10-02T20:59:12.779Z,17.09
2022-10-02T21:01:39.446Z,17.04
2022-10-02T21:04:05.618Z,17.00
2022-10-02T21:06:31.816Z,17.00
2022-10-02T21:08:58.155Z,17.02
2022-10-02T21:11:24.496Z,16.97
2022-10-02T21:13:50.815Z,16.98
2022-10-02T21:16:17.395Z,16.92
2022-10-02T21:18:43.669Z,16.82
2022-10-02T21:21:09.994Z,16.73
2022-10-02T21:23:36.318Z,16.73
2022-10-02T21:26:02.663Z,16.76
2022-10-02T21:28:29.084Z,16.71
2022-10-02T21:30:55.441Z,16.68
2022-10-02T21:33:21.691Z,16.69
2022-10-02T21:35:48.015Z,16.65
2022-10-02T21:38:14.351Z,16.68
2022-10-02T21:40:40.688Z,16.67
2022-10-02T21:43:07.027Z,16.64
2022-10-02T21:45:33.371Z,16.67
2022-10-02T21:47:59.715Z,16.75
2022-10-02T21:50:27.128Z,16.75
2022-10-02T21:52:53.444Z,16.65
2022-10-02T21:55:19.926Z,16.62
2022-10-02T21:57:46.299Z,16.54
2022-10-02T22:00:12.979Z,16.56
2022-10-02T22:02:39.375Z,16.66
2022-10-02T22:05:05.781Z,16.78
2022-10-02T22:07:32.137Z,16.77
2022-10-02T22:09:58.455Z,16.74
2022-10-02T22:12:24.777Z,16.63
2022-10-02T22:14:51.127Z,16.54
2022-10-02T22:17:17.460Z,16.51
2022-10-02T22:19:43.797Z,16.61
2022-10-02T22:22:10.145Z,16.68
2022-10-02T22:24:36.475Z,16.70
2022-10-02T22:27:02.791Z,16.64
2022-10-02T22:29:29.113Z,16.54
2022-10-02T22:31:55.471Z,16.39
2022-10-02T22:34:22.544Z,16.34
2022-10-02T22:36:48.113Z,16.28
2022-10-02T22:39:14.469Z,16.23
2022-10-02T22:41:41.227Z,16.14
2022-10-02T22:44:07.150Z,16.09
2022-10-02T22:46:36.659Z,16.05
2022-10-02T22:48:59.828Z,16.08
2022-10-02T22:51:26.147Z,16.09
2022-10-02T22:53:52.470Z,16.09
2022-10-02T22:56:18.791Z,16.14
2022-10-02T22:58:45.141Z,16.13
2022-10-02T23:01:11.481Z,15.98
2022-10-02T23:03:37.797Z,16.03
2022-10-02T23:06:04.157Z,16.24
2022-10-02T23:08:30.479Z,16.39
2022-10-02T23:10:56.801Z,16.39
2022-10-02T23:13:23.132Z,16.41
2022-10-02T23:15:49.543Z,16.45
2022-10-02T23:18:15.795Z,16.46
2022-10-02T23:20:42.163Z,16.41
2022-10-02T23:23:08.482Z,16.38
2022-10-02T23:25:34.822Z,16.48
2022-10-02T23:28:01.243Z,16.55
2022-10-02T23:30:27.515Z,16.40
2022-10-02T23:32:53.853Z,16.38
2022-10-02T23:35:20.202Z,16.35
2022-10-02T23:37:46.545Z,16.50
2022-10-02T23:40:12.877Z,16.70
2022-10-02T23:42:39.221Z,16.63
2022-10-02T23:45:05.537Z,16.60
2022-10-02T23:47:31.892Z,16.73
2022-10-02T23:49:58.228Z,16.92
2022-10-02T23:52:24.570Z,16.85
2022-10-02T23:54:50.887Z,16.48
2022-10-02T23:57:17.246Z,16.15
2022-10-02T23:59:43.562Z,15.98
